sensor_id;sensor_type;location;lat;lon;timestamp;P1;durP1;ratioP1;P2;durP2;ratioP2
59532;SDS011;45351;53.596;10.000;2022-07-22T00:01:46;3.83;;;2.60;;
59532;SDS011;45351;53.596;10.000;2022-07-22T00:04:13;4.57;;;2.77;;
59532;SDS011;45351;53.596;10.000;2022-07-22T00:06:39;13.83;;;2.73;;
59532;SDS011;45351;53.596;10.000;2022-07-22T00:09:06;14.67;;;6.00;;
59532;SDS011;45351;53.596;10.000;2022-07-22T00:11:33;13.93;;;3.30;;
59532;SDS011;45351;53.596;10.000;2022-07-22T00:14:02;8.83;;;3.20;;
59532;SDS011;45351;53.596;10.000;2022-07-22T00:16:29;12.23;;;7.73;;
59532;SDS011;45351;53.596;10.000;2022-07-22T00:18:56;16.77;;;10.83;;
59532;SDS011;45351;53.596;10.000;2022-07-22T00:21:23;18.47;;;9.77;;
59532;SDS011;45351;53.596;10.000;2022-07-22T00:23:49;18.73;;;10.93;;
59532;SDS011;45351;53.596;10.000;2022-07-22T00:26:16;19.20;;;11.30;;
59532;SDS011;45351;53.596;10.000;2022-07-22T00:28:43;16.20;;;10.30;;
59532;SDS011;45351;53.596;10.000;2022-07-22T00:31:11;20.67;;;10.50;;
59532;SDS011;45351;53.596;10.000;2022-07-22T00:33:38;12.97;;;7.50;;
59532;SDS011;45351;53.596;10.000;2022-07-22T00:36:06;20.77;;;11.37;;
59532;SDS011;45351;53.596;10.000;2022-07-22T00:38:33;14.60;;;9.83;;
59532;SDS011;45351;53.596;10.000;2022-07-22T00:41:00;10.73;;;7.97;;
59532;SDS011;45351;53.596;10.000;2022-07-22T00:43:27;14.73;;;7.93;;
59532;SDS011;45351;53.596;10.000;2022-07-22T00:45:54;15.60;;;8.00;;
59532;SDS011;45351;53.596;10.000;2022-07-22T00:48:22;11.63;;;7.17;;
59532;SDS011;45351;53.596;10.000;2022-07-22T00:50:49;9.73;;;6.77;;
59532;SDS011;45351;53.596;10.000;2022-07-22T00:53:18;9.50;;;6.83;;
59532;SDS011;45351;53.596;10.000;2022-07-22T00:55:45;10.30;;;6.47;;
59532;SDS011;45351;53.596;10.000;2022-07-22T00:58:11;8.43;;;5.73;;
59532;SDS011;45351;53.596;10.000;2022-07-22T01:00:38;8.30;;;5.20;;
59532;SDS011;45351;53.596;10.000;2022-07-22T01:03:05;6.33;;;5.07;;
59532;SDS011;45351;53.596;10.000;2022-07-22T01:05:33;5.10;;;4.20;;
59532;SDS011;45351;53.596;10.000;2022-07-22T01:08:00;12.10;;;4.37;;
59532;SDS011;45351;53.596;10.000;2022-07-22T01:10:31;5.47;;;3.37;;
59532;SDS011;45351;53.596;10.000;2022-07-22T01:12:58;7.33;;;3.87;;
59532;SDS011;45351;53.596;10.000;2022-07-22T01:15:25;5.60;;;2.80;;
59532;SDS011;45351;53.596;10.000;2022-07-22T01:17:52;3.77;;;2.53;;
59532;SDS011;45351;53.596;10.000;2022-07-22T01:20:20;7.33;;;2.60;;
59532;SDS011;45351;53.596;10.000;2022-07-22T01:22:47;6.60;;;2.57;;
59532;SDS011;45351;53.596;10.000;2022-07-22T01:25:15;4.53;;;2.30;;
59532;SDS011;45351;53.596;10.000;2022-07-22T01:27:42;3.10;;;2.63;;
59532;SDS011;45351;53.596;10.000;2022-07-22T01:30:10;5.73;;;2.40;;
59532;SDS011;45351;53.596;10.000;2022-07-22T01:32:38;3.20;;;2.50;;
59532;SDS011;45351;53.596;10.000;2022-07-22T01:35:05;3.03;;;2.37;;
59532;SDS011;45351;53.596;10.000;2022-07-22T01:37:34;4.70;;;2.70;;
59532;SDS011;45351;53.596;10.000;2022-07-22T01:40:01;4.03;;;2.90;;
59532;SDS011;45351;53.596;10.000;2022-07-22T01:42:28;4.80;;;2.63;;
59532;SDS011;45351;53.596;10.000;2022-07-22T01:44:55;4.70;;;2.87;;
59532;SDS011;45351;53.596;10.000;2022-07-22T01:47:22;5.07;;;2.87;;
59532;SDS011;45351;53.596;10.000;2022-07-22T01:50:08;5.07;;;3.50;;
59532;SDS011;45351;53.596;10.000;2022-07-22T01:52:59;3.93;;;2.10;;
59532;SDS011;45351;53.596;10.000;2022-07-22T01:55:47;7.50;;;3.80;;
59532;SDS011;45351;53.596;10.000;2022-07-22T01:58:36;6.70;;;3.00;;
59532;SDS011;45351;53.596;10.000;2022-07-22T02:01:25;4.20;;;2.73;;
59532;SDS011;45351;53.596;10.000;2022-07-22T02:03:52;7.83;;;3.00;;
59532;SDS011;45351;53.596;10.000;2022-07-22T02:06:19;8.40;;;3.60;;
59532;SDS011;45351;53.596;10.000;2022-07-22T02:08:51;9.73;;;4.20;;
59532;SDS011;45351;53.596;10.000;2022-07-22T02:11:26;12.40;;;3.47;;
59532;SDS011;45351;53.596;10.000;2022-07-22T02:13:57;9.87;;;4.13;;
59532;SDS011;45351;53.596;10.000;2022-07-22T02:16:25;7.17;;;2.90;;
59532;SDS011;45351;53.596;10.000;2022-07-22T02:18:53;6.80;;;2.77;;
59532;SDS011;45351;53.596;10.000;2022-07-22T02:21:20;9.63;;;3.37;;
59532;SDS011;45351;53.596;10.000;2022-07-22T02:23:47;5.80;;;3.50;;
59532;SDS011;45351;53.596;10.000;2022-07-22T02:26:15;6.90;;;2.90;;
59532;SDS011;45351;53.596;10.000;2022-07-22T02:28:44;11.77;;;3.00;;
59532;SDS011;45351;53.596;10.000;2022-07-22T02:31:11;8.13;;;2.27;;
59532;SDS011;45351;53.596;10.000;2022-07-22T02:33:37;9.10;;;3.10;;
59532;SDS011;45351;53.596;10.000;2022-07-22T02:36:04;6.37;;;2.30;;
59532;SDS011;45351;53.596;10.000;2022-07-22T02:38:33;8.73;;;2.50;;
59532;SDS011;45351;53.596;10.000;2022-07-22T02:41:00;3.33;;;2.30;;
59532;SDS011;45351;53.596;10.000;2022-07-22T02:43:29;8.10;;;2.40;;
59532;SDS011;45351;53.596;10.000;2022-07-22T02:45:56;5.80;;;2.37;;
59532;SDS011;45351;53.596;10.000;2022-07-22T02:48:24;8.07;;;2.57;;
59532;SDS011;45351;53.596;10.000;2022-07-22T02:50:51;5.37;;;2.50;;
59532;SDS011;45351;53.596;10.000;2022-07-22T02:53:22;5.73;;;2.00;;
59532;SDS011;45351;53.596;10.000;2022-07-22T02:55:50;5.10;;;1.80;;
59532;SDS011;45351;53.596;10.000;2022-07-22T02:58:17;3.50;;;2.23;;
59532;SDS011;45351;53.596;10.000;2022-07-22T03:00:46;7.27;;;1.80;;
59532;SDS011;45351;53.596;10.000;2022-07-22T03:03:13;7.00;;;2.00;;
59532;SDS011;45351;53.596;10.000;2022-07-22T03:05:40;7.47;;;1.97;;
59532;SDS011;45351;53.596;10.000;2022-07-22T03:08:18;6.80;;;1.90;;
59532;SDS011;45351;53.596;10.000;2022-07-22T03:10:45;8.73;;;1.77;;
59532;SDS011;45351;53.596;10.000;2022-07-22T03:13:12;6.00;;;2.00;;
59532;SDS011;45351;53.596;10.000;2022-07-22T03:15:39;14.20;;;1.97;;
59532;SDS011;45351;53.596;10.000;2022-07-22T03:18:08;7.13;;;1.83;;
59532;SDS011;45351;53.596;10.000;2022-07-22T03:20:35;8.00;;;1.77;;
59532;SDS011;45351;53.596;10.000;2022-07-22T03:23:02;6.97;;;1.57;;
59532;SDS011;45351;53.596;10.000;2022-07-22T03:25:29;7.73;;;1.97;;
59532;SDS011;45351;53.596;10.000;2022-07-22T03:27:58;13.63;;;1.90;;
59532;SDS011;45351;53.596;10.000;2022-07-22T03:30:24;3.73;;;1.37;;
59532;SDS011;45351;53.596;10.000;2022-07-22T03:32:51;14.80;;;2.07;;
59532;SDS011;45351;53.596;10.000;2022-07-22T03:35:22;12.27;;;1.50;;
59532;SDS011;45351;53.596;10.000;2022-07-22T03:37:49;4.63;;;1.43;;
59532;SDS011;45351;53.596;10.000;2022-07-22T03:40:17;9.00;;;1.73;;
59532;SDS011;45351;53.596;10.000;2022-07-22T03:42:44;8.13;;;1.80;;
59532;SDS011;45351;53.596;10.000;2022-07-22T03:45:11;13.80;;;1.90;;
59532;SDS011;45351;53.596;10.000;2022-07-22T03:47:39;13.03;;;2.00;;
59532;SDS011;45351;53.596;10.000;2022-07-22T03:50:07;6.87;;;1.50;;
59532;SDS011;45351;53.596;10.000;2022-07-22T03:52:35;8.23;;;1.53;;
59532;SDS011;45351;53.596;10.000;2022-07-22T03:55:06;3.43;;;1.23;;
59532;SDS011;45351;53.596;10.000;2022-07-22T03:57:34;3.73;;;1.57;;
59532;SDS011;45351;53.596;10.000;2022-07-22T04:00:20;5.40;;;1.30;;
59532;SDS011;45351;53.596;10.000;2022-07-22T04:02:48;12.10;;;1.60;;
59532;SDS011;45351;53.596;10.000;2022-07-22T04:05:20;5.23;;;1.37;;
59532;SDS011;45351;53.596;10.000;2022-07-22T04:07:50;4.63;;;1.70;;
59532;SDS011;45351;53.596;10.000;2022-07-22T04:10:17;4.03;;;1.57;;
59532;SDS011;45351;53.596;10.000;2022-07-22T04:12:43;2.90;;;1.23;;
59532;SDS011;45351;53.596;10.000;2022-07-22T04:15:27;5.20;;;1.60;;
59532;SDS011;45351;53.596;10.000;2022-07-22T04:17:54;4.27;;;1.53;;
59532;SDS011;45351;53.596;10.000;2022-07-22T04:20:21;4.17;;;1.30;;
59532;SDS011;45351;53.596;10.000;2022-07-22T04:23:22;3.83;;;1.03;;
59532;SDS011;45351;53.596;10.000;2022-07-22T04:25:58;4.80;;;1.10;;
59532;SDS011;45351;53.596;10.000;2022-07-22T04:28:24;12.67;;;1.47;;
59532;SDS011;45351;53.596;10.000;2022-07-22T04:30:51;3.37;;;1.27;;
59532;SDS011;45351;53.596;10.000;2022-07-22T04:33:18;5.30;;;1.20;;
59532;SDS011;45351;53.596;10.000;2022-07-22T04:35:45;4.03;;;1.20;;
59532;SDS011;45351;53.596;10.000;2022-07-22T04:38:16;2.13;;;0.97;;
59532;SDS011;45351;53.596;10.000;2022-07-22T04:40:54;2.60;;;0.90;;
59532;SDS011;45351;53.596;10.000;2022-07-22T04:43:23;2.43;;;1.17;;
59532;SDS011;45351;53.596;10.000;2022-07-22T04:45:50;1.97;;;1.07;;
59532;SDS011;45351;53.596;10.000;2022-07-22T04:48:17;1.77;;;0.90;;
59532;SDS011;45351;53.596;10.000;2022-07-22T04:50:46;4.00;;;1.00;;
59532;SDS011;45351;53.596;10.000;2022-07-22T04:53:13;1.20;;;0.90;;
59532;SDS011;45351;53.596;10.000;2022-07-22T04:55:40;3.57;;;0.93;;
59532;SDS011;45351;53.596;10.000;2022-07-22T04:58:09;2.90;;;1.00;;
59532;SDS011;45351;53.596;10.000;2022-07-22T05:00:36;2.67;;;1.00;;
59532;SDS011;45351;53.596;10.000;2022-07-22T05:03:03;8.23;;;1.20;;
59532;SDS011;45351;53.596;10.000;2022-07-22T05:05:30;5.77;;;1.40;;
59532;SDS011;45351;53.596;10.000;2022-07-22T05:07:58;6.70;;;1.30;;
59532;SDS011;45351;53.596;10.000;2022-07-22T05:10:27;4.70;;;1.30;;
59532;SDS011;45351;53.596;10.000;2022-07-22T05:12:53;8.43;;;1.13;;
59532;SDS011;45351;53.596;10.000;2022-07-22T05:15:22;4.77;;;1.30;;
59532;SDS011;45351;53.596;10.000;2022-07-22T05:17:49;4.47;;;1.30;;
59532;SDS011;45351;53.596;10.000;2022-07-22T05:20:22;5.87;;;1.63;;
59532;SDS011;45351;53.596;10.000;2022-07-22T05:22:49;8.17;;;1.73;;
59532;SDS011;45351;53.596;10.000;2022-07-22T05:25:22;7.27;;;1.93;;
59532;SDS011;45351;53.596;10.000;2022-07-22T05:27:49;7.17;;;1.80;;
59532;SDS011;45351;53.596;10.000;2022-07-22T05:30:22;6.43;;;1.40;;
59532;SDS011;45351;53.596;10.000;2022-07-22T05:32:49;6.37;;;1.37;;
59532;SDS011;45351;53.596;10.000;2022-07-22T05:35:21;5.50;;;1.83;;
59532;SDS011;45351;53.596;10.000;2022-07-22T05:37:48;5.97;;;1.30;;
59532;SDS011;45351;53.596;10.000;2022-07-22T05:40:15;4.23;;;1.40;;
59532;SDS011;45351;53.596;10.000;2022-07-22T05:42:42;5.67;;;1.80;;
59532;SDS011;45351;53.596;10.000;2022-07-22T05:45:09;2.53;;;1.10;;
59532;SDS011;45351;53.596;10.000;2022-07-22T05:47:37;3.73;;;1.60;;
59532;SDS011;45351;53.596;10.000;2022-07-22T05:50:04;5.90;;;1.40;;
59532;SDS011;45351;53.596;10.000;2022-07-22T05:52:35;3.37;;;1.30;;
59532;SDS011;45351;53.596;10.000;2022-07-22T05:55:02;3.10;;;1.30;;
59532;SDS011;45351;53.596;10.000;2022-07-22T05:57:31;2.30;;;1.50;;
59532;SDS011;45351;53.596;10.000;2022-07-22T05:59:58;5.40;;;1.50;;
59532;SDS011;45351;53.596;10.000;2022-07-22T06:02:25;3.63;;;1.30;;
59532;SDS011;45351;53.596;10.000;2022-07-22T06:04:53;5.10;;;1.60;;
59532;SDS011;45351;53.596;10.000;2022-07-22T06:07:21;2.63;;;1.80;;
59532;SDS011;45351;53.596;10.000;2022-07-22T06:09:53;2.60;;;1.30;;
59532;SDS011;45351;53.596;10.000;2022-07-22T06:12:20;5.17;;;1.23;;
59532;SDS011;45351;53.596;10.000;2022-07-22T06:14:47;6.50;;;1.40;;
59532;SDS011;45351;53.596;10.000;2022-07-22T06:17:14;3.30;;;1.30;;
59532;SDS011;45351;53.596;10.000;2022-07-22T06:19:41;3.70;;;1.63;;
59532;SDS011;45351;53.596;10.000;2022-07-22T06:22:09;4.20;;;1.27;;
59532;SDS011;45351;53.596;10.000;2022-07-22T06:24:36;7.87;;;1.63;;
59532;SDS011;45351;53.596;10.000;2022-07-22T06:27:04;4.90;;;1.70;;
59532;SDS011;45351;53.596;10.000;2022-07-22T06:29:31;5.50;;;1.57;;
59532;SDS011;45351;53.596;10.000;2022-07-22T06:31:58;4.00;;;1.50;;
59532;SDS011;45351;53.596;10.000;2022-07-22T06:34:25;7.83;;;1.30;;
59532;SDS011;45351;53.596;10.000;2022-07-22T06:36:58;4.57;;;1.37;;
59532;SDS011;45351;53.596;10.000;2022-07-22T06:39:26;2.87;;;1.20;;
59532;SDS011;45351;53.596;10.000;2022-07-22T06:42:11;2.80;;;1.37;;
59532;SDS011;45351;53.596;10.000;2022-07-22T06:44:56;5.40;;;1.40;;
59532;SDS011;45351;53.596;10.000;2022-07-22T06:47:55;4.80;;;1.70;;
59532;SDS011;45351;53.596;10.000;2022-07-22T06:50:23;5.80;;;1.43;;
59532;SDS011;45351;53.596;10.000;2022-07-22T06:52:51;4.13;;;1.70;;
59532;SDS011;45351;53.596;10.000;2022-07-22T06:55:20;8.63;;;1.83;;
59532;SDS011;45351;53.596;10.000;2022-07-22T06:57:57;4.10;;;2.10;;
59532;SDS011;45351;53.596;10.000;2022-07-22T07:00:26;5.03;;;1.90;;
59532;SDS011;45351;53.596;10.000;2022-07-22T07:03:11;5.53;;;1.70;;
59532;SDS011;45351;53.596;10.000;2022-07-22T07:05:39;6.80;;;1.97;;
59532;SDS011;45351;53.596;10.000;2022-07-22T07:08:06;7.53;;;1.97;;
59532;SDS011;45351;53.596;10.000;2022-07-22T07:10:34;5.53;;;1.73;;
59532;SDS011;45351;53.596;10.000;2022-07-22T07:13:07;7.13;;;2.30;;
59532;SDS011;45351;53.596;10.000;2022-07-22T07:15:46;4.70;;;1.80;;
59532;SDS011;45351;53.596;10.000;2022-07-22T07:18:13;7.37;;;2.73;;
59532;SDS011;45351;53.596;10.000;2022-07-22T07:20:41;8.30;;;2.13;;
59532;SDS011;45351;53.596;10.000;2022-07-22T07:23:09;5.13;;;2.20;;
59532;SDS011;45351;53.596;10.000;2022-07-22T07:25:42;5.37;;;1.97;;
59532;SDS011;45351;53.596;10.000;2022-07-22T07:28:09;7.93;;;2.63;;
59532;SDS011;45351;53.596;10.000;2022-07-22T07:31:00;6.50;;;2.30;;
59532;SDS011;45351;53.596;10.000;2022-07-22T07:33:28;6.70;;;2.03;;
59532;SDS011;45351;53.596;10.000;2022-07-22T07:35:56;6.73;;;2.23;;
59532;SDS011;45351;53.596;10.000;2022-07-22T07:38:33;8.83;;;2.47;;
59532;SDS011;45351;53.596;10.000;2022-07-22T07:41:04;7.50;;;2.00;;
59532;SDS011;45351;53.596;10.000;2022-07-22T07:43:31;15.40;;;2.20;;
59532;SDS011;45351;53.596;10.000;2022-07-22T07:45:59;8.90;;;2.27;;
59532;SDS011;45351;53.596;10.000;2022-07-22T07:48:26;8.80;;;2.20;;
59532;SDS011;45351;53.596;10.000;2022-07-22T07:50:53;7.00;;;1.70;;
59532;SDS011;45351;53.596;10.000;2022-07-22T07:53:20;7.67;;;1.97;;
59532;SDS011;45351;53.596;10.000;2022-07-22T07:55:47;8.87;;;2.40;;
59532;SDS011;45351;53.596;10.000;2022-07-22T07:58:17;4.93;;;1.97;;
59532;SDS011;45351;53.596;10.000;2022-07-22T08:00:43;5.17;;;1.87;;
59532;SDS011;45351;53.596;10.000;2022-07-22T08:03:11;7.30;;;2.00;;
59532;SDS011;45351;53.596;10.000;2022-07-22T08:05:38;8.20;;;2.33;;
59532;SDS011;45351;53.596;10.000;2022-07-22T08:08:11;8.83;;;1.77;;
59532;SDS011;45351;53.596;10.000;2022-07-22T08:10:38;5.97;;;2.30;;
59532;SDS011;45351;53.596;10.000;2022-07-22T08:13:39;7.63;;;2.03;;
59532;SDS011;45351;53.596;10.000;2022-07-22T08:16:29;7.23;;;2.10;;
59532;SDS011;45351;53.596;10.000;2022-07-22T08:18:56;8.77;;;2.33;;
59532;SDS011;45351;53.596;10.000;2022-07-22T08:21:23;8.13;;;2.10;;
59532;SDS011;45351;53.596;10.000;2022-07-22T08:23:54;8.97;;;2.20;;
59532;SDS011;45351;53.596;10.000;2022-07-22T08:26:21;6.30;;;1.80;;
59532;SDS011;45351;53.596;10.000;2022-07-22T08:28:49;7.10;;;1.80;;
59532;SDS011;45351;53.596;10.000;2022-07-22T08:31:16;6.83;;;1.83;;
59532;SDS011;45351;53.596;10.000;2022-07-22T08:33:44;8.60;;;1.93;;
59532;SDS011;45351;53.596;10.000;2022-07-22T08:36:12;5.93;;;1.83;;
59532;SDS011;45351;53.596;10.000;2022-07-22T08:38:39;6.20;;;1.93;;
59532;SDS011;45351;53.596;10.000;2022-07-22T08:41:06;5.97;;;1.87;;
59532;SDS011;45351;53.596;10.000;2022-07-22T08:43:35;10.10;;;2.40;;
59532;SDS011;45351;53.596;10.000;2022-07-22T08:46:06;4.27;;;1.67;;
59532;SDS011;45351;53.596;10.000;2022-07-22T08:48:48;3.97;;;1.50;;
59532;SDS011;45351;53.596;10.000;2022-07-22T08:51:33;4.93;;;1.70;;
59532;SDS011;45351;53.596;10.000;2022-07-22T08:54:19;4.17;;;1.60;;
59532;SDS011;45351;53.596;10.000;2022-07-22T08:56:46;6.90;;;1.80;;
59532;SDS011;45351;53.596;10.000;2022-07-22T08:59:13;7.13;;;1.63;;
59532;SDS011;45351;53.596;10.000;2022-07-22T09:01:44;6.70;;;2.00;;
59532;SDS011;45351;53.596;10.000;2022-07-22T09:04:27;4.73;;;1.63;;
59532;SDS011;45351;53.596;10.000;2022-07-22T09:06:54;5.20;;;1.57;;
59532;SDS011;45351;53.596;10.000;2022-07-22T09:09:31;5.60;;;1.50;;
59532;SDS011;45351;53.596;10.000;2022-07-22T09:12:17;4.80;;;1.50;;
59532;SDS011;45351;53.596;10.000;2022-07-22T09:15:08;6.27;;;1.63;;
59532;SDS011;45351;53.596;10.000;2022-07-22T09:17:51;5.77;;;1.67;;
59532;SDS011;45351;53.596;10.000;2022-07-22T09:20:34;5.97;;;1.90;;
59532;SDS011;45351;53.596;10.000;2022-07-22T09:23:22;5.80;;;1.50;;
59532;SDS011;45351;53.596;10.000;2022-07-22T09:25:51;9.00;;;1.80;;
59532;SDS011;45351;53.596;10.000;2022-07-22T09:28:53;4.13;;;1.83;;
59532;SDS011;45351;53.596;10.000;2022-07-22T09:31:27;3.33;;;1.40;;
59532;SDS011;45351;53.596;10.000;2022-07-22T09:34:10;5.30;;;1.40;;
59532;SDS011;45351;53.596;10.000;2022-07-22T09:36:53;5.60;;;1.60;;
59532;SDS011;45351;53.596;10.000;2022-07-22T09:39:24;3.70;;;1.40;;
59532;SDS011;45351;53.596;10.000;2022-07-22T09:41:56;8.23;;;1.80;;
59532;SDS011;45351;53.596;10.000;2022-07-22T09:44:24;7.97;;;1.70;;
59532;SDS011;45351;53.596;10.000;2022-07-22T09:46:53;3.40;;;1.47;;
59532;SDS011;45351;53.596;10.000;2022-07-22T09:49:37;4.47;;;1.23;;
59532;SDS011;45351;53.596;10.000;2022-07-22T09:52:23;4.87;;;1.50;;
59532;SDS011;45351;53.596;10.000;2022-07-22T09:54:59;3.97;;;1.50;;
59532;SDS011;45351;53.596;10.000;2022-07-22T09:57:27;6.33;;;1.40;;
59532;SDS011;45351;53.596;10.000;2022-07-22T09:59:55;5.50;;;1.50;;
59532;SDS011;45351;53.596;10.000;2022-07-22T10:02:40;4.33;;;1.40;;
59532;SDS011;45351;53.596;10.000;2022-07-22T10:05:13;7.70;;;1.50;;
59532;SDS011;45351;53.596;10.000;2022-07-22T10:07:43;5.50;;;1.50;;
59532;SDS011;45351;53.596;10.000;2022-07-22T10:10:11;5.80;;;1.50;;
59532;SDS011;45351;53.596;10.000;2022-07-22T10:12:40;4.00;;;1.30;;
59532;SDS011;45351;53.596;10.000;2022-07-22T10:15:08;6.20;;;1.47;;
59532;SDS011;45351;53.596;10.000;2022-07-22T10:17:37;4.30;;;1.50;;
59532;SDS011;45351;53.596;10.000;2022-07-22T10:20:07;4.53;;;1.30;;
59532;SDS011;45351;53.596;10.000;2022-07-22T10:22:53;3.77;;;1.40;;
59532;SDS011;45351;53.596;10.000;2022-07-22T10:25:23;5.30;;;1.27;;
59532;SDS011;45351;53.596;10.000;2022-07-22T10:27:52;9.17;;;1.80;;
59532;SDS011;45351;53.596;10.000;2022-07-22T10:30:21;3.47;;;1.20;;
59532;SDS011;45351;53.596;10.000;2022-07-22T10:33:01;9.70;;;1.80;;
59532;SDS011;45351;53.596;10.000;2022-07-22T10:35:30;2.93;;;1.47;;
59532;SDS011;45351;53.596;10.000;2022-07-22T10:38:05;3.97;;;1.20;;
59532;SDS011;45351;53.596;10.000;2022-07-22T10:43:19;3.57;;;1.47;;
59532;SDS011;45351;53.596;10.000;2022-07-22T10:45:48;3.87;;;1.30;;
59532;SDS011;45351;53.596;10.000;2022-07-22T10:48:18;4.70;;;1.20;;
59532;SDS011;45351;53.596;10.000;2022-07-22T10:50:54;3.70;;;1.67;;
59532;SDS011;45351;53.596;10.000;2022-07-22T10:53:45;6.37;;;1.30;;
59532;SDS011;45351;53.596;10.000;2022-07-22T10:56:15;4.00;;;1.30;;
59532;SDS011;45351;53.596;10.000;2022-07-22T10:58:47;3.30;;;1.30;;
59532;SDS011;45351;53.596;10.000;2022-07-22T11:01:20;2.73;;;1.07;;
59532;SDS011;45351;53.596;10.000;2022-07-22T11:03:49;3.27;;;1.10;;
59532;SDS011;45351;53.596;10.000;2022-07-22T11:06:17;7.37;;;1.43;;
59532;SDS011;45351;53.596;10.000;2022-07-22T11:08:49;3.30;;;1.30;;
59532;SDS011;45351;53.596;10.000;2022-07-22T11:11:17;4.80;;;1.30;;
59532;SDS011;45351;53.596;10.000;2022-07-22T11:13:45;4.03;;;1.50;;
59532;SDS011;45351;53.596;10.000;2022-07-22T11:16:19;7.20;;;1.80;;
59532;SDS011;45351;53.596;10.000;2022-07-22T11:18:50;4.30;;;1.50;;
59532;SDS011;45351;53.596;10.000;2022-07-22T11:21:18;6.93;;;1.60;;
59532;SDS011;45351;53.596;10.000;2022-07-22T11:23:49;3.10;;;1.30;;
59532;SDS011;45351;53.596;10.000;2022-07-22T11:26:20;6.43;;;1.60;;
59532;SDS011;45351;53.596;10.000;2022-07-22T11:28:50;8.03;;;1.53;;
59532;SDS011;45351;53.596;10.000;2022-07-22T11:31:18;3.33;;;1.60;;
59532;SDS011;45351;53.596;10.000;2022-07-22T11:33:45;4.30;;;1.33;;
59532;SDS011;45351;53.596;10.000;2022-07-22T11:36:12;6.10;;;1.60;;
59532;SDS011;45351;53.596;10.000;2022-07-22T11:38:44;7.53;;;1.70;;
59532;SDS011;45351;53.596;10.000;2022-07-22T11:41:14;9.97;;;1.63;;
59532;SDS011;45351;53.596;10.000;2022-07-22T11:43:43;10.20;;;2.33;;
59532;SDS011;45351;53.596;10.000;2022-07-22T11:46:12;10.57;;;2.80;;
59532;SDS011;45351;53.596;10.000;2022-07-22T11:48:40;5.83;;;1.80;;
59532;SDS011;45351;53.596;10.000;2022-07-22T11:51:08;9.47;;;1.90;;
59532;SDS011;45351;53.596;10.000;2022-07-22T11:53:36;4.90;;;1.70;;
59532;SDS011;45351;53.596;10.000;2022-07-22T11:56:04;5.70;;;1.40;;
59532;SDS011;45351;53.596;10.000;2022-07-22T11:58:35;6.50;;;2.00;;
59532;SDS011;45351;53.596;10.000;2022-07-22T12:01:03;6.97;;;1.63;;
59532;SDS011;45351;53.596;10.000;2022-07-22T12:03:32;8.70;;;1.80;;
59532;SDS011;45351;53.596;10.000;2022-07-22T12:06:01;4.77;;;1.50;;
59532;SDS011;45351;53.596;10.000;2022-07-22T12:08:28;5.87;;;1.93;;
59532;SDS011;45351;53.596;10.000;2022-07-22T12:10:55;3.40;;;1.80;;
59532;SDS011;45351;53.596;10.000;2022-07-22T12:13:27;6.17;;;1.50;;
59532;SDS011;45351;53.596;10.000;2022-07-22T12:15:57;4.40;;;1.83;;
59532;SDS011;45351;53.596;10.000;2022-07-22T12:18:25;4.37;;;1.60;;
59532;SDS011;45351;53.596;10.000;2022-07-22T12:20:54;3.23;;;1.40;;
59532;SDS011;45351;53.596;10.000;2022-07-22T12:23:22;4.67;;;1.60;;
59532;SDS011;45351;53.596;10.000;2022-07-22T12:25:53;7.00;;;2.07;;
59532;SDS011;45351;53.596;10.000;2022-07-22T12:28:21;8.23;;;1.90;;
59532;SDS011;45351;53.596;10.000;2022-07-22T12:30:49;6.30;;;2.00;;
59532;SDS011;45351;53.596;10.000;2022-07-22T12:33:19;2.70;;;1.33;;
59532;SDS011;45351;53.596;10.000;2022-07-22T12:35:57;3.80;;;1.47;;
59532;SDS011;45351;53.596;10.000;2022-07-22T12:38:26;6.17;;;1.43;;
59532;SDS011;45351;53.596;10.000;2022-07-22T12:40:54;7.57;;;1.80;;
59532;SDS011;45351;53.596;10.000;2022-07-22T12:43:23;7.17;;;1.80;;
59532;SDS011;45351;53.596;10.000;2022-07-22T12:45:51;3.20;;;1.37;;
59532;SDS011;45351;53.596;10.000;2022-07-22T12:48:20;6.47;;;1.70;;
59532;SDS011;45351;53.596;10.000;2022-07-22T12:50:55;4.30;;;1.30;;
59532;SDS011;45351;53.596;10.000;2022-07-22T12:53:24;6.00;;;1.70;;
59532;SDS011;45351;53.596;10.000;2022-07-22T12:55:55;5.23;;;1.50;;
59532;SDS011;45351;53.596;10.000;2022-07-22T12:58:24;4.77;;;1.50;;
59532;SDS011;45351;53.596;10.000;2022-07-22T13:00:53;5.03;;;1.40;;
59532;SDS011;45351;53.596;10.000;2022-07-22T13:03:23;3.70;;;1.47;;
59532;SDS011;45351;53.596;10.000;2022-07-22T13:05:52;5.90;;;1.60;;
59532;SDS011;45351;53.596;10.000;2022-07-22T13:08:21;3.93;;;1.27;;
59532;SDS011;45351;53.596;10.000;2022-07-22T13:10:48;4.33;;;1.40;;
59532;SDS011;45351;53.596;10.000;2022-07-22T13:13:15;5.40;;;1.50;;
59532;SDS011;45351;53.596;10.000;2022-07-22T13:15:43;5.50;;;1.87;;
59532;SDS011;45351;53.596;10.000;2022-07-22T13:18:09;5.10;;;1.60;;
59532;SDS011;45351;53.596;10.000;2022-07-22T13:20:38;3.43;;;1.27;;
59532;SDS011;45351;53.596;10.000;2022-07-22T13:23:05;4.67;;;1.37;;
59532;SDS011;45351;53.596;10.000;2022-07-22T13:25:32;4.30;;;1.40;;
59532;SDS011;45351;53.596;10.000;2022-07-22T13:28:00;2.80;;;1.30;;
59532;SDS011;45351;53.596;10.000;2022-07-22T13:30:27;3.73;;;1.20;;
59532;SDS011;45351;53.596;10.000;2022-07-22T13:32:54;2.70;;;1.20;;
59532;SDS011;45351;53.596;10.000;2022-07-22T13:35:21;5.20;;;1.50;;
59532;SDS011;45351;53.596;10.000;2022-07-22T13:37:49;3.87;;;1.57;;
59532;SDS011;45351;53.596;10.000;2022-07-22T13:40:16;4.03;;;1.60;;
59532;SDS011;45351;53.596;10.000;2022-07-22T13:42:43;6.47;;;1.90;;
59532;SDS011;45351;53.596;10.000;2022-07-22T13:45:10;5.27;;;1.70;;
59532;SDS011;45351;53.596;10.000;2022-07-22T13:47:39;4.33;;;1.40;;
59532;SDS011;45351;53.596;10.000;2022-07-22T13:50:07;3.77;;;1.60;;
59532;SDS011;45351;53.596;10.000;2022-07-22T13:52:34;4.53;;;1.70;;
59532;SDS011;45351;53.596;10.000;2022-07-22T13:55:03;5.87;;;2.03;;
59532;SDS011;45351;53.596;10.000;2022-07-22T13:57:30;4.70;;;1.30;;
59532;SDS011;45351;53.596;10.000;2022-07-22T13:59:57;3.43;;;1.00;;
59532;SDS011;45351;53.596;10.000;2022-07-22T14:02:24;4.00;;;1.50;;
59532;SDS011;45351;53.596;10.000;2022-07-22T14:04:51;4.63;;;1.77;;
59532;SDS011;45351;53.596;10.000;2022-07-22T14:07:18;2.60;;;1.20;;
59532;SDS011;45351;53.596;10.000;2022-07-22T14:09:45;5.67;;;1.70;;
59532;SDS011;45351;53.596;10.000;2022-07-22T14:12:13;4.03;;;1.43;;
59532;SDS011;45351;53.596;10.000;2022-07-22T14:14:40;4.50;;;1.13;;
59532;SDS011;45351;53.596;10.000;2022-07-22T14:17:06;5.97;;;3.07;;
59532;SDS011;45351;53.596;10.000;2022-07-22T14:19:33;7.60;;;1.87;;
59532;SDS011;45351;53.596;10.000;2022-07-22T14:22:00;3.77;;;1.63;;
59532;SDS011;45351;53.596;10.000;2022-07-22T14:24:27;4.73;;;1.43;;
59532;SDS011;45351;53.596;10.000;2022-07-22T14:26:54;3.80;;;1.40;;
59532;SDS011;45351;53.596;10.000;2022-07-22T14:29:22;3.20;;;1.33;;
59532;SDS011;45351;53.596;10.000;2022-07-22T14:31:49;2.50;;;1.50;;
59532;SDS011;45351;53.596;10.000;2022-07-22T14:34:16;4.53;;;1.80;;
59532;SDS011;45351;53.596;10.000;2022-07-22T14:36:43;3.70;;;1.80;;
59532;SDS011;45351;53.596;10.000;2022-07-22T14:39:10;4.40;;;1.53;;
59532;SDS011;45351;53.596;10.000;2022-07-22T14:41:36;4.03;;;1.50;;
59532;SDS011;45351;53.596;10.000;2022-07-22T14:44:03;4.63;;;1.33;;
59532;SDS011;45351;53.596;10.000;2022-07-22T14:46:32;6.57;;;2.00;;
59532;SDS011;45351;53.596;10.000;2022-07-22T14:48:59;4.10;;;1.40;;
59532;SDS011;45351;53.596;10.000;2022-07-22T14:51:26;3.90;;;1.73;;
59532;SDS011;45351;53.596;10.000;2022-07-22T14:53:52;4.07;;;1.40;;